Historyczne dane pomiarowe

Dodano dane terminowe – wersja testowa.

Dane z okresu 1951-2019

Wersja bazy: 1.34 [2019-03-16, lista zmian], aktualizacja planowana na 2019-04-15

Dane meteo z obszaru Polski uzyskane na podstawie danych udostępnionych przez Instytut Meteorologii i Gospodarki Wodnej – Państwowy Instytut Badawczy.

 

Wybierz Datę:    

       

TemperaturaWilgotnośćWiatrCiśnienieOpadyŚniegCzas trwania zjawisk
 Stacja t tx tn tng RH VA  wxwx mslp ppp RRR   cm mm wxwxwxwxwxwxwx
1956-11-09 -4.9 -0.6 -7.3-13.4 82.5- 3.7 1.7---- 0.0------------
1956-11-08 -3.0 -0.4 -4.8-11.7 90.5- 4.3 1.3---- 0.0------------
1956-11-07 -0.5 2.1 -2.1 -2.4 82.3- 4.7 5.7---- 0.0------------
1956-11-06 1.3 3.5 -0.1 -7.0 81.3- 6.7 5.7---- 0.0------------
1956-11-05 2.7 6.5 -2.3 -5.2 88.5- 8.0 3.7---- 0.0------------
1956-11-04 -0.4 3.5 -3.3-10.6 80.0- 1.0 2.3---- 0.0------------
1956-11-03 -0.5 1.3 -3.6 -7.4 91.0- 8.0 1.0---- 0.0------------
1956-11-02 -0.2 3.4 -2.4 -1.7 91.0- 4.7 1.0---- 0.3------------
1956-11-01 -0.6 2.0 -7.3 -7.4 81.0- 5.3 4.7---- 0.6------------
1956-10-31 -5.8 -1.6 -8.1 -7.4 83.3- 2.0 3.3---- 0.0------------
1956-10-30 -0.2 4.8 -2.0 -2.6 91.0- 8.0 5.3---- 0.0------------
1956-10-29 5.0 10.7 2.6 0.2 84.5- 5.0 3.7---- 0.0------------
1956-10-28 10.1 10.6 8.9 8.1 97.3- 8.0 5.3---- 2.4------------
1956-10-27 9.5 12.0 7.3 7.0 93.8- 8.0 2.7---- 2.1------------
1956-10-26 7.9 9.9 5.8 0.5 96.5- 8.0 1.3---- 1.6------------
1956-10-25 10.4 16.4 6.3 3.6 85.5- 3.0 4.0---- 0.0------------
1956-10-24 10.8 15.1 3.7 -0.8 84.0- 4.0 3.3---- 0.0------------
1956-10-23 8.2 11.4 5.1 7.1 87.5- 5.3 3.0---- 0.0------------
1956-10-22 11.4 13.0 10.2 7.9 84.3- 5.3 3.3---- 0.0------------
1956-10-21 12.8 16.6 8.9 5.1 85.3- 4.3 2.3---- 0.0------------
1956-10-20 9.5 12.7 5.2 1.2 86.5- 7.0 2.0---- 0.0------------
1956-10-19 10.6 13.2 9.5 8.6 93.0- 7.7 3.0---- 0.5------------
1956-10-18 10.0 13.0 3.1 0.1 91.8- 7.7 2.7---- 0.5------------
1956-10-17 5.4 12.0 -0.8 -5.7 79.5- 0.0 3.0---- 0.0------------
1956-10-16 3.7 10.3 -1.3 -6.5 88.8- 2.7 1.0---- 0.0------------
1956-10-15 5.5 11.1 1.6 -1.1 80.8- 0.7 3.0---- 0.0------------
1956-10-14 7.1 11.3 4.5 5.8 68.8- 3.0 5.0---- 0.0------------
1956-10-13 10.5 12.0 8.0 5.5 69.5- 7.7 8.3---- 4.5------------
1956-10-12 9.4 12.0 8.5 7.7 82.3- 5.7 3.7---- 0.0------------
1956-10-11 8.4 10.4 4.4 2.7 71.8- 5.7 5.3---- 0.0------------
1956-10-10 4.2 8.2 -1.2 -6.5 74.8- 2.0 3.0---- 0.0------------
1956-10-09 6.2 8.1 0.4 -1.8 90.8- 5.7 2.7---- 0.2------------
1956-10-08 4.7 8.2 0.9 -1.7 82.5- 3.3 3.7---- 0.0------------
1956-10-07 6.7 8.2 3.3 3.7 79.5- 7.3 8.0---- 0.1------------
1956-10-06 6.5 8.5 4.2 -0.4 94.0- 8.0 3.7---- 42.5------------
1956-10-05 10.0 15.1 7.2 2.3 83.8- 6.0 2.0---- 0.0------------
1956-10-04 8.9 11.6 4.9 -0.4 96.0- 6.0 2.0---- 1.7------------
1956-10-03 13.1 19.1 9.8 9.5 80.5- 5.0 4.7---- 0.0------------
1956-10-02 17.4 24.8 9.3 4.1 71.8- 1.0 3.0---- 0.0------------
1956-10-01 16.1 23.5 5.2 -1.5 77.3- 1.7 3.7---- 0.0------------
1956-09-30 10.8 17.7 7.6 4.7 87.8- 4.0 3.3---- 0.0------------
1956-09-29 15.9 20.6 11.5 9.1 81.5- 5.7 4.7---- 0.2------------
1956-09-28 13.4 17.6 10.6 5.1 84.0- 3.7 3.0---- 0.0------------
1956-09-27 15.2 23.7 7.4 3.4 71.3- 1.7 3.0---- 0.0------------
1956-09-26 14.0 22.2 5.1 0.1 68.8- 0.0 3.0---- 0.0------------
1956-09-25 10.7 18.6 0.4 -6.5 77.8- 0.3 3.0---- 0.0------------
1956-09-24 8.0 14.3 2.2 -1.6 71.5- 0.0 4.0---- 0.0------------
1956-09-23 9.5 15.8 5.7 -0.9 82.0- 0.7 2.7---- 0.0------------
1956-09-22 10.9 18.5 3.1 2.2 78.8- 0.0 1.3---- 0.0------------
1956-09-21 9.6 18.3 2.0 -2.7 79.0- 0.0 0.7---- 0.0------------
1956-09-20 9.2 17.3 1.6 -4.4 77.0- 2.7 3.0---- 0.0------------
1956-09-19 8.2 16.4 0.3 -4.3 78.8- 1.7 1.7---- 0.0------------
1956-09-18 7.2 13.6 3.4 1.1 84.3- 2.0 2.7---- 0.0------------
1956-09-17 9.3 13.3 7.2 5.9 77.8- 3.7 3.3---- 0.0------------
1956-09-16 10.7 12.8 7.0 4.4 74.8- 7.0 3.7---- 0.0------------
1956-09-15 9.7 14.5 5.4 0.3 90.8- 5.3 3.3---- 0.0------------
1956-09-14 9.8 14.6 4.2 0.5 84.3- 3.0 2.7---- 0.0------------
1956-09-13 9.1 14.1 7.2 5.6 83.0- 4.3 5.7---- 0.0------------
1956-09-12 10.9 15.1 8.0 6.1 84.3- 4.3 5.0---- 9.5------------
1956-09-11 13.0 15.5 11.6 11.8 95.3- 5.3 1.7---- 1.3------------
255.2 ms

 

Źródłem pochodzenia danych jest Instytut Meteorologii i Gospodarki Wodnej – Państwowy Instytut Badawczy. Dane Instytutu Meteorologii i Gospodarki Wodnej – Państwowego Instytutu Badawczego zostały przetworzone.

Dane źródłowe można odnaleźć na stronie https://dane.imgw.pl